createdAt,value
2019-03-30T00:01:25.989Z,7.41
2019-03-30T00:03:54.466Z,7.35
2019-03-30T00:06:22.963Z,7.35
2019-03-30T00:08:51.434Z,7.34
2019-03-30T00:11:19.897Z,7.30
2019-03-30T00:13:48.659Z,7.22
2019-03-30T00:16:17.075Z,7.13
2019-03-30T00:18:45.955Z,6.86
2019-03-30T00:21:14.449Z,6.77
2019-03-30T00:23:42.869Z,6.63
2019-03-30T00:26:11.399Z,6.77
2019-03-30T00:28:39.831Z,6.54
2019-03-30T00:31:08.291Z,6.44
2019-03-30T00:33:36.777Z,6.36
2019-03-30T00:36:05.386Z,6.17
2019-03-30T00:38:33.946Z,6.10
2019-03-30T00:41:02.481Z,6.07
2019-03-30T00:43:30.940Z,5.90
2019-03-30T00:45:59.400Z,5.92
2019-03-30T00:48:27.917Z,5.90
2019-03-30T00:50:56.417Z,5.78
2019-03-30T00:53:24.914Z,5.60
2019-03-30T00:55:53.422Z,5.56
2019-03-30T00:58:21.871Z,5.52
2019-03-30T01:00:50.437Z,5.63
2019-03-30T01:03:18.871Z,5.65
2019-03-30T01:05:47.322Z,5.57
2019-03-30T01:08:15.875Z,5.49
2019-03-30T01:10:44.336Z,5.44
2019-03-30T01:13:12.829Z,5.38
2019-03-30T01:15:41.287Z,5.22
2019-03-30T01:18:09.782Z,5.20
2019-03-30T01:20:38.208Z,5.06
2019-03-30T01:23:06.680Z,4.98
2019-03-30T01:25:35.186Z,5.05
2019-03-30T01:28:03.720Z,4.99
2019-03-30T01:30:32.140Z,5.07
2019-03-30T01:33:00.563Z,4.94
2019-03-30T01:35:29.233Z,4.74
2019-03-30T01:37:57.848Z,4.44
2019-03-30T01:40:26.272Z,4.38
2019-03-30T01:42:54.692Z,4.65
2019-03-30T01:45:23.334Z,4.66
2019-03-30T01:47:51.769Z,4.58
2019-03-30T01:50:20.584Z,4.60
2019-03-30T01:52:49.078Z,4.39
2019-03-30T01:55:17.562Z,4.35
2019-03-30T01:57:46.008Z,4.59
2019-03-30T02:00:15.775Z,4.54
2019-03-30T02:02:44.426Z,4.07
2019-03-30T02:05:12.942Z,3.69
2019-03-30T02:07:41.373Z,3.49
2019-03-30T02:10:11.269Z,3.36
2019-03-30T02:12:39.926Z,3.25
2019-03-30T02:15:10.147Z,3.38
2019-03-30T02:17:38.590Z,3.34
2019-03-30T02:20:07.990Z,3.03
2019-03-30T02:22:36.516Z,3.15
2019-03-30T02:25:07.138Z,3.24
2019-03-30T02:27:35.668Z,2.99
2019-03-30T02:30:06.554Z,2.97
2019-03-30T02:32:34.997Z,3.03
2019-03-30T02:35:04.589Z,3.15
2019-03-30T02:37:33.044Z,3.09
2019-03-30T02:40:01.467Z,3.26
2019-03-30T02:42:29.960Z,3.33
2019-03-30T02:44:58.434Z,3.48
2019-03-30T02:47:26.932Z,3.46
2019-03-30T02:49:55.412Z,3.39
2019-03-30T02:52:23.805Z,3.44
2019-03-30T02:54:52.228Z,3.13
2019-03-30T02:57:20.673Z,3.25
2019-03-30T02:59:49.124Z,2.98
2019-03-30T03:02:17.540Z,2.95
2019-03-30T03:04:46.033Z,3.18
2019-03-30T03:07:14.562Z,3.40
2019-03-30T03:09:42.982Z,3.41
2019-03-30T03:12:11.499Z,3.50
2019-03-30T03:14:39.921Z,3.43
2019-03-30T03:17:08.375Z,3.42
2019-03-30T03:19:36.789Z,3.41
2019-03-30T03:22:05.237Z,3.54
2019-03-30T03:24:33.781Z,3.45
2019-03-30T03:27:02.273Z,3.40
2019-03-30T03:29:30.736Z,3.30
2019-03-30T03:31:59.274Z,3.31
2019-03-30T03:34:27.784Z,3.16
2019-03-30T03:36:56.206Z,3.07
2019-03-30T03:39:24.662Z,3.10
2019-03-30T03:41:53.153Z,2.90
2019-03-30T03:44:21.685Z,2.60
2019-03-30T03:46:50.108Z,2.60
2019-03-30T03:49:18.531Z,2.71
2019-03-30T03:51:47.048Z,2.86
2019-03-30T03:54:16.005Z,2.82
2019-03-30T03:56:47.771Z,2.84
2019-03-30T03:59:17.282Z,2.88
2019-03-30T04:01:47.624Z,2.84
2019-03-30T04:04:18.213Z,2.74
2019-03-30T04:06:49.744Z,2.73
2019-03-30T04:09:19.894Z,2.84
2019-03-30T04:11:49.793Z,2.85
2019-03-30T04:14:20.734Z,2.82
2019-03-30T04:16:49.328Z,2.86
2019-03-30T04:19:17.770Z,2.75
2019-03-30T04:21:46.223Z,2.87
2019-03-30T04:24:14.645Z,2.80
2019-03-30T04:26:43.060Z,2.78
2019-03-30T04:29:11.603Z,2.76
2019-03-30T04:31:40.143Z,2.61
2019-03-30T04:34:08.579Z,2.63
2019-03-30T04:36:36.993Z,2.64
2019-03-30T04:39:06.205Z,2.57
2019-03-30T04:41:34.652Z,2.48
2019-03-30T04:44:03.141Z,2.48
2019-03-30T04:46:31.558Z,2.51
2019-03-30T04:48:59.983Z,2.59
2019-03-30T04:51:28.450Z,2.59
2019-03-30T04:53:56.874Z,2.49
2019-03-30T04:56:25.335Z,2.52
2019-03-30T04:58:53.792Z,2.45
2019-03-30T05:01:22.237Z,2.49
2019-03-30T05:03:50.720Z,2.52
2019-03-30T05:06:19.140Z,2.57
2019-03-30T05:08:47.574Z,2.49
2019-03-30T05:11:16.030Z,2.42
2019-03-30T05:13:44.485Z,2.39
2019-03-30T05:16:13.026Z,2.29
2019-03-30T05:18:41.480Z,2.22
2019-03-30T05:21:09.893Z,2.24
2019-03-30T05:23:38.308Z,2.26
2019-03-30T05:26:06.779Z,2.49
2019-03-30T05:28:35.186Z,2.39
2019-03-30T05:31:03.649Z,2.28
2019-03-30T05:33:32.073Z,2.24
2019-03-30T05:36:00.621Z,2.15
2019-03-30T05:38:29.072Z,2.19
2019-03-30T05:40:57.488Z,2.19
2019-03-30T05:43:25.938Z,2.48
2019-03-30T05:45:54.370Z,2.75
2019-03-30T05:48:22.829Z,3.12
2019-03-30T05:50:51.244Z,3.50
2019-03-30T05:53:19.698Z,3.76
2019-03-30T05:55:48.214Z,4.04
2019-03-30T05:58:16.644Z,4.19
2019-03-30T06:00:45.093Z,4.48
2019-03-30T06:03:13.535Z,4.69
2019-03-30T06:05:42.015Z,4.92
2019-03-30T06:08:10.439Z,5.09
2019-03-30T06:10:39.120Z,5.16
2019-03-30T06:13:07.718Z,5.39
2019-03-30T06:15:37.117Z,5.63
2019-03-30T06:18:05.582Z,5.85
2019-03-30T06:20:33.995Z,6.03
2019-03-30T06:23:02.447Z,6.26
2019-03-30T06:25:30.978Z,6.31
2019-03-30T06:27:59.445Z,6.58
2019-03-30T06:30:28.509Z,6.68
2019-03-30T06:32:56.953Z,7.04
2019-03-30T06:35:25.383Z,7.19
2019-03-30T06:37:53.884Z,7.34
2019-03-30T06:40:22.568Z,7.72
2019-03-30T06:42:51.007Z,7.94
2019-03-30T06:45:19.624Z,8.15
2019-03-30T06:47:48.046Z,8.36
2019-03-30T06:50:18.204Z,8.44
2019-03-30T06:52:57.506Z,8.65
2019-03-30T06:55:17.142Z,8.85
2019-03-30T06:57:45.671Z,9.15
2019-03-30T07:00:14.645Z,9.56
2019-03-30T07:02:43.425Z,9.78
2019-03-30T07:05:11.968Z,9.96
2019-03-30T07:07:42.122Z,10.10
2019-03-30T07:10:10.873Z,10.47
2019-03-30T07:12:41.042Z,11.17
2019-03-30T07:15:10.279Z,11.32
2019-03-30T07:17:41.789Z,11.83
2019-03-30T07:20:13.277Z,12.39
2019-03-30T07:22:41.704Z,12.87
2019-03-30T07:25:10.298Z,13.17
2019-03-30T07:27:38.716Z,13.58
2019-03-30T07:30:09.294Z,14.05
2019-03-30T07:32:37.720Z,14.47
2019-03-30T07:35:06.918Z,14.84
2019-03-30T07:37:35.375Z,15.39
2019-03-30T07:40:06.428Z,15.96
2019-03-30T07:42:34.858Z,16.56
2019-03-30T07:45:04.670Z,17.12
2019-03-30T07:47:33.088Z,17.47
2019-03-30T07:50:01.618Z,17.83
2019-03-30T07:52:30.114Z,18.10
2019-03-30T07:54:58.541Z,18.32
2019-03-30T07:57:26.970Z,18.43
2019-03-30T07:59:55.458Z,19.07
2019-03-30T08:02:23.979Z,18.75
2019-03-30T08:04:52.434Z,19.31
2019-03-30T08:07:20.951Z,19.89
2019-03-30T08:09:49.406Z,20.25
2019-03-30T08:12:17.937Z,20.67
2019-03-30T08:14:46.467Z,21.37
2019-03-30T08:17:14.991Z,21.51
2019-03-30T08:19:43.453Z,21.37
2019-03-30T08:22:11.938Z,21.36
2019-03-30T08:24:40.364Z,21.71
2019-03-30T08:27:08.813Z,22.19
2019-03-30T08:29:37.354Z,22.46
2019-03-30T08:32:05.967Z,22.59
2019-03-30T08:34:34.582Z,23.44
2019-03-30T08:37:03.008Z,23.38
2019-03-30T08:39:31.476Z,23.81
2019-03-30T08:41:59.905Z,23.63
2019-03-30T08:44:28.340Z,24.11
2019-03-30T08:46:56.847Z,24.63
2019-03-30T08:49:25.298Z,24.91
2019-03-30T08:51:53.749Z,25.19
2019-03-30T08:54:22.207Z,24.61
2019-03-30T08:56:50.732Z,25.26
2019-03-30T08:59:19.224Z,26.15
2019-03-30T09:01:47.679Z,26.01
2019-03-30T09:04:16.125Z,26.44
2019-03-30T09:06:44.844Z,26.32
2019-03-30T09:09:13.433Z,27.01
2019-03-30T09:11:43.580Z,27.52
2019-03-30T09:14:12.051Z,27.94
2019-03-30T09:16:41.473Z,28.18
2019-03-30T09:19:09.935Z,29.03
2019-03-30T09:21:38.367Z,28.84
2019-03-30T09:24:09.866Z,29.41
2019-03-30T09:26:37.069Z,28.78
2019-03-30T09:29:05.569Z,28.89
2019-03-30T09:31:34.333Z,28.28
2019-03-30T09:34:02.764Z,29.20
2019-03-30T09:36:31.237Z,28.81
2019-03-30T09:38:59.658Z,29.23
2019-03-30T09:41:28.247Z,29.63
2019-03-30T09:43:56.705Z,29.71
2019-03-30T09:46:25.160Z,29.66
2019-03-30T09:48:53.574Z,30.64
2019-03-30T09:51:22.076Z,30.00
2019-03-30T09:53:50.609Z,29.81
2019-03-30T09:56:19.036Z,30.01
2019-03-30T09:58:47.553Z,30.16
2019-03-30T10:01:16.064Z,29.46
2019-03-30T10:03:44.583Z,29.85
2019-03-30T10:06:13.130Z,29.36
2019-03-30T10:08:41.580Z,30.02
2019-03-30T10:11:10.069Z,29.79
2019-03-30T10:13:38.523Z,30.21
2019-03-30T10:16:06.938Z,29.43
2019-03-30T10:18:35.380Z,30.13
2019-03-30T10:21:03.919Z,30.03
2019-03-30T10:23:32.331Z,27.53
2019-03-30T10:26:01.121Z,28.12
2019-03-30T10:28:29.534Z,28.41
2019-03-30T10:30:58.033Z,25.41
2019-03-30T10:33:26.431Z,27.24
2019-03-30T10:35:54.875Z,27.74
2019-03-30T10:38:23.318Z,29.31
2019-03-30T10:40:51.774Z,29.20
2019-03-30T10:43:20.193Z,28.96
2019-03-30T10:45:48.641Z,28.29
2019-03-30T10:48:17.082Z,28.51
2019-03-30T10:50:45.558Z,28.12
2019-03-30T10:53:14.009Z,25.49
2019-03-30T10:55:42.427Z,26.51
2019-03-30T10:58:10.943Z,27.75
2019-03-30T11:00:40.650Z,28.39
2019-03-30T11:03:09.222Z,27.88
2019-03-30T11:05:37.748Z,28.39
2019-03-30T11:08:06.367Z,28.34
2019-03-30T11:10:34.933Z,28.28
2019-03-30T11:13:03.460Z,27.71
2019-03-30T11:15:34.104Z,28.67
2019-03-30T11:18:02.297Z,27.75
2019-03-30T11:20:30.963Z,27.60
2019-03-30T11:22:59.457Z,27.57
2019-03-30T11:25:28.003Z,26.91
2019-03-30T11:27:56.418Z,26.16
2019-03-30T11:30:24.981Z,25.04
2019-03-30T11:32:53.529Z,24.41
2019-03-30T11:35:22.036Z,24.07
2019-03-30T11:37:51.314Z,24.32
2019-03-30T11:40:19.840Z,24.18
2019-03-30T11:42:48.248Z,23.97
2019-03-30T11:45:16.876Z,21.96
2019-03-30T11:47:45.308Z,22.91
2019-03-30T11:50:14.129Z,22.59
2019-03-30T11:52:42.565Z,22.50
2019-03-30T11:55:21.838Z,22.26
2019-03-30T11:57:41.447Z,22.31
2019-03-30T12:00:10.495Z,22.42
2019-03-30T12:02:39.072Z,22.34
2019-03-30T12:05:08.735Z,22.17
2019-03-30T12:07:37.830Z,22.16
2019-03-30T12:10:09.166Z,21.76
2019-03-30T12:12:37.791Z,21.76
2019-03-30T12:15:07.491Z,21.28
2019-03-30T12:17:35.921Z,21.77
2019-03-30T12:20:06.663Z,21.58
2019-03-30T12:22:35.088Z,21.10
2019-03-30T12:25:03.697Z,20.80
2019-03-30T12:27:32.211Z,20.93
2019-03-30T12:30:00.764Z,20.97
2019-03-30T12:32:29.192Z,21.26
2019-03-30T12:34:57.764Z,21.21
2019-03-30T12:37:26.285Z,20.81
2019-03-30T12:39:58.060Z,21.05
2019-03-30T12:42:25.047Z,21.02
2019-03-30T12:44:53.487Z,20.61
2019-03-30T12:47:22.007Z,20.56
2019-03-30T12:49:50.437Z,20.63
2019-03-30T12:52:18.875Z,20.60
2019-03-30T12:54:47.297Z,20.30
2019-03-30T12:57:15.792Z,20.26
2019-03-30T12:59:44.220Z,20.45
2019-03-30T13:02:12.703Z,20.43
2019-03-30T13:04:41.154Z,20.20
2019-03-30T13:07:09.587Z,20.32
2019-03-30T13:09:38.031Z,19.95
2019-03-30T13:12:06.480Z,19.55
2019-03-30T13:14:34.900Z,19.60
2019-03-30T13:17:03.359Z,19.47
2019-03-30T13:19:31.793Z,19.16
2019-03-30T13:22:00.215Z,19.18
2019-03-30T13:24:28.667Z,19.27
2019-03-30T13:26:57.128Z,19.11
2019-03-30T13:29:25.616Z,19.26
2019-03-30T13:31:54.026Z,19.13
2019-03-30T13:34:22.557Z,19.04
2019-03-30T13:36:50.977Z,19.23
2019-03-30T13:39:19.403Z,19.41
2019-03-30T13:41:47.937Z,19.46
2019-03-30T13:44:16.422Z,19.42
2019-03-30T13:46:44.842Z,19.45
2019-03-30T13:49:13.289Z,19.44
2019-03-30T13:51:41.709Z,19.42
2019-03-30T13:54:10.383Z,19.34
2019-03-30T13:56:38.981Z,19.29
2019-03-30T13:59:07.440Z,18.97
2019-03-30T14:01:35.941Z,19.05
2019-03-30T14:04:04.510Z,19.02
2019-03-30T14:06:33.022Z,19.19
2019-03-30T14:09:01.507Z,18.49
2019-03-30T14:11:29.996Z,18.38
2019-03-30T14:13:58.411Z,18.51
2019-03-30T14:16:26.841Z,18.56
2019-03-30T14:18:55.298Z,18.70
2019-03-30T14:21:23.726Z,18.71
2019-03-30T14:23:52.188Z,18.66
2019-03-30T14:26:30.785Z,18.65
2019-03-30T14:28:50.776Z,18.58
2019-03-30T14:31:19.219Z,18.75
2019-03-30T14:33:47.686Z,18.71
2019-03-30T14:36:16.150Z,18.61
2019-03-30T14:38:44.593Z,18.57
2019-03-30T14:41:13.143Z,18.25
2019-03-30T14:43:41.595Z,18.39
2019-03-30T14:46:10.040Z,18.22
2019-03-30T14:48:38.457Z,18.30
2019-03-30T14:51:06.950Z,18.24
2019-03-30T14:53:35.539Z,18.01
2019-03-30T14:56:04.125Z,17.79
2019-03-30T14:58:32.637Z,18.10
2019-03-30T15:01:03.195Z,18.16
2019-03-30T15:03:31.310Z,18.19
2019-03-30T15:05:59.753Z,18.09
2019-03-30T15:08:28.197Z,17.99
2019-03-30T15:10:56.818Z,18.00
2019-03-30T15:13:25.241Z,18.02
2019-03-30T15:15:53.767Z,18.06
2019-03-30T15:18:22.382Z,17.94
2019-03-30T15:20:50.832Z,17.88
2019-03-30T15:23:19.363Z,17.96
2019-03-30T15:25:48.188Z,18.13
2019-03-30T15:28:16.610Z,17.86
2019-03-30T15:30:45.040Z,17.92
2019-03-30T15:33:13.490Z,17.83
2019-03-30T15:35:41.908Z,17.83
2019-03-30T15:38:10.361Z,17.82
2019-03-30T15:40:38.790Z,17.97
2019-03-30T15:43:07.288Z,17.95
2019-03-30T15:45:35.749Z,17.78
2019-03-30T15:48:04.292Z,17.75
2019-03-30T15:50:32.734Z,17.73
2019-03-30T15:53:01.207Z,17.69
2019-03-30T15:55:29.640Z,17.63
2019-03-30T15:57:58.205Z,17.70
2019-03-30T16:00:26.664Z,17.66
2019-03-30T16:02:55.254Z,17.59
2019-03-30T16:05:23.772Z,17.61
2019-03-30T16:07:52.331Z,17.51
2019-03-30T16:10:21.055Z,17.58
2019-03-30T16:12:49.534Z,17.49
2019-03-30T16:15:18.031Z,17.42
2019-03-30T16:17:46.484Z,17.40
2019-03-30T16:20:15.659Z,17.21
2019-03-30T16:22:44.890Z,17.34
2019-03-30T16:25:13.261Z,17.26
2019-03-30T16:27:41.878Z,17.17
2019-03-30T16:30:11.297Z,17.17
2019-03-30T16:32:39.819Z,17.00
2019-03-30T16:35:09.529Z,17.04
2019-03-30T16:37:38.048Z,16.92
2019-03-30T16:40:07.332Z,16.97
2019-03-30T16:42:36.355Z,16.87
2019-03-30T16:45:06.410Z,16.84
2019-03-30T16:47:34.869Z,16.84
2019-03-30T16:50:03.668Z,16.75
2019-03-30T16:52:32.154Z,16.80
2019-03-30T16:55:00.657Z,16.67
2019-03-30T16:57:42.629Z,16.69
2019-03-30T16:59:59.414Z,16.64
2019-03-30T17:02:27.843Z,16.52
2019-03-30T17:04:56.551Z,16.49
2019-03-30T17:07:24.978Z,16.36
2019-03-30T17:09:53.415Z,16.31
2019-03-30T17:12:21.891Z,16.28
2019-03-30T17:14:50.612Z,16.32
2019-03-30T17:17:19.037Z,16.19
2019-03-30T17:19:47.484Z,16.07
2019-03-30T17:22:15.917Z,16.04
2019-03-30T17:24:44.378Z,15.97
2019-03-30T17:27:12.871Z,15.93
2019-03-30T17:29:41.294Z,15.89
2019-03-30T17:32:09.839Z,15.74
2019-03-30T17:34:38.363Z,15.61
2019-03-30T17:37:06.924Z,15.48
2019-03-30T17:39:35.445Z,15.41
2019-03-30T17:42:04.008Z,15.33
2019-03-30T17:44:32.713Z,15.16
2019-03-30T17:47:01.165Z,15.19
2019-03-30T17:49:29.590Z,15.02
2019-03-30T17:51:58.023Z,15.03
2019-03-30T17:54:26.475Z,14.90
2019-03-30T17:56:54.940Z,14.57
2019-03-30T17:59:23.948Z,14.41
2019-03-30T18:01:52.594Z,14.31
2019-03-30T18:04:21.062Z,14.15
2019-03-30T18:06:49.639Z,14.17
2019-03-30T18:09:18.082Z,14.17
2019-03-30T18:11:46.596Z,14.08
2019-03-30T18:14:15.056Z,13.69
2019-03-30T18:16:43.575Z,13.40
2019-03-30T18:19:12.088Z,13.39
2019-03-30T18:21:40.615Z,13.26
2019-03-30T18:24:09.038Z,13.38
2019-03-30T18:26:37.555Z,13.14
2019-03-30T18:29:06.089Z,12.64
2019-03-30T18:31:34.933Z,12.75
2019-03-30T18:34:03.512Z,12.62
2019-03-30T18:36:33.706Z,12.33
2019-03-30T18:39:09.836Z,12.11
2019-03-30T18:41:33.923Z,12.20
2019-03-30T18:44:02.890Z,11.83
2019-03-30T18:46:31.440Z,11.87
2019-03-30T18:49:00.038Z,11.72
2019-03-30T18:51:28.705Z,11.66
2019-03-30T18:53:57.466Z,11.47
2019-03-30T18:56:27.958Z,11.35
2019-03-30T18:58:56.063Z,11.37
2019-03-30T19:01:24.521Z,11.47
2019-03-30T19:03:52.944Z,11.38
2019-03-30T19:06:21.491Z,11.39
2019-03-30T19:08:49.970Z,11.63
2019-03-30T19:11:18.502Z,11.58
2019-03-30T19:13:47.078Z,11.50
2019-03-30T19:16:15.802Z,11.40
2019-03-30T19:18:44.296Z,11.11
2019-03-30T19:21:12.867Z,11.04
2019-03-30T19:23:41.379Z,10.92
2019-03-30T19:26:09.859Z,10.86
2019-03-30T19:28:38.295Z,10.92
2019-03-30T19:31:06.798Z,11.08
2019-03-30T19:33:35.282Z,10.78
2019-03-30T19:36:03.839Z,11.17
2019-03-30T19:38:32.311Z,10.91
2019-03-30T19:41:01.600Z,10.69
2019-03-30T19:43:30.029Z,10.27
2019-03-30T19:45:58.454Z,9.94
2019-03-30T19:48:26.919Z,9.80
2019-03-30T19:50:55.405Z,9.58
2019-03-30T19:53:23.842Z,9.57
2019-03-30T19:55:52.464Z,9.58
2019-03-30T19:58:21.022Z,9.34
2019-03-30T20:00:49.705Z,9.15
2019-03-30T20:03:18.154Z,9.23
2019-03-30T20:05:46.645Z,9.04
2019-03-30T20:08:15.097Z,8.81
2019-03-30T20:10:43.539Z,8.90
2019-03-30T20:13:12.083Z,8.84
2019-03-30T20:15:40.681Z,8.82
2019-03-30T20:18:09.257Z,8.94
2019-03-30T20:20:37.717Z,8.90
2019-03-30T20:23:06.254Z,9.24
2019-03-30T20:25:34.713Z,9.22
2019-03-30T20:28:03.182Z,9.18
2019-03-30T20:30:31.774Z,9.25
2019-03-30T20:33:00.282Z,9.22
2019-03-30T20:35:28.732Z,9.15
2019-03-30T20:37:57.266Z,8.96
2019-03-30T20:40:25.983Z,8.91
2019-03-30T20:42:54.404Z,8.80
2019-03-30T20:45:22.851Z,8.72
2019-03-30T20:47:51.310Z,8.73
2019-03-30T20:50:19.813Z,8.70
2019-03-30T20:52:48.297Z,8.65
2019-03-30T20:55:16.787Z,8.72
2019-03-30T20:57:45.253Z,8.61
2019-03-30T21:00:14.696Z,8.25
2019-03-30T21:02:43.188Z,8.17
2019-03-30T21:05:12.006Z,8.07
2019-03-30T21:07:41.920Z,7.72
2019-03-30T21:10:11.625Z,7.70
2019-03-30T21:12:40.094Z,7.70
2019-03-30T21:15:08.685Z,7.68
2019-03-30T21:17:37.123Z,7.73
2019-03-30T21:20:08.857Z,7.68
2019-03-30T21:22:37.638Z,7.79
2019-03-30T21:25:06.616Z,7.58
2019-03-30T21:27:35.091Z,7.54
2019-03-30T21:30:05.621Z,7.56
2019-03-30T21:32:34.065Z,7.60
2019-03-30T21:35:02.698Z,7.55
2019-03-30T21:37:31.120Z,7.59
2019-03-30T21:39:59.556Z,7.66
2019-03-30T21:42:28.031Z,7.76
2019-03-30T21:44:56.447Z,7.70
2019-03-30T21:47:24.897Z,7.55
2019-03-30T21:49:53.373Z,7.48
2019-03-30T21:52:21.795Z,7.29
2019-03-30T21:54:50.254Z,7.20
2019-03-30T21:57:18.758Z,7.39
2019-03-30T21:59:47.281Z,7.44
2019-03-30T22:02:15.743Z,7.45
2019-03-30T22:04:44.262Z,7.44
2019-03-30T22:07:12.931Z,7.38
2019-03-30T22:09:41.497Z,6.73
2019-03-30T22:12:09.923Z,6.86
2019-03-30T22:14:38.537Z,6.61
2019-03-30T22:17:06.968Z,6.42
2019-03-30T22:19:35.528Z,6.40
2019-03-30T22:22:04.010Z,6.42
2019-03-30T22:24:32.513Z,6.50
2019-03-30T22:27:01.014Z,6.27
2019-03-30T22:29:29.444Z,6.28
2019-03-30T22:31:58.198Z,6.24
2019-03-30T22:34:26.688Z,6.40
2019-03-30T22:36:55.178Z,6.47
2019-03-30T22:39:23.700Z,6.63
2019-03-30T22:41:52.270Z,6.56
2019-03-30T22:44:20.852Z,6.47
2019-03-30T22:46:49.287Z,6.58
2019-03-30T22:49:17.833Z,6.23
2019-03-30T22:51:46.306Z,6.07
2019-03-30T22:54:14.772Z,6.08
2019-03-30T22:56:43.277Z,6.12
2019-03-30T22:59:11.716Z,6.30
2019-03-30T23:01:40.317Z,6.24
2019-03-30T23:04:08.865Z,6.18
2019-03-30T23:06:37.426Z,6.19
2019-03-30T23:09:06.606Z,6.20
2019-03-30T23:11:35.044Z,5.96
2019-03-30T23:14:03.644Z,5.97
2019-03-30T23:16:32.173Z,5.86
2019-03-30T23:19:00.630Z,5.77
2019-03-30T23:21:29.060Z,5.80
2019-03-30T23:23:57.480Z,5.78
2019-03-30T23:26:26.015Z,5.60
2019-03-30T23:28:54.449Z,5.53
2019-03-30T23:31:23.074Z,5.49
2019-03-30T23:33:51.530Z,5.53
2019-03-30T23:36:20.071Z,5.49
2019-03-30T23:38:48.499Z,5.42
2019-03-30T23:41:16.932Z,5.29
2019-03-30T23:43:45.386Z,5.26
2019-03-30T23:46:13.955Z,5.23
2019-03-30T23:48:42.387Z,5.21
2019-03-30T23:51:10.851Z,5.17
2019-03-30T23:53:39.266Z,5.12
2019-03-30T23:56:19.781Z,5.08
2019-03-30T23:58:48.447Z,5.19
